Time;durP1;ratioP1;P1;durP2;ratioP2;P2;SDS_P1;SDS_P2;PMS_P1;PMS_P2;Temp;Humidity;BMP_temperature;BMP_pressure;BME280_temperature;BME280_humidity;BME280_pressure;Samples;Min_cycle;Max_cycle;Signal;HPM_P1;HPM_P2
2023/01/24 00:01:45;;;;;;;;;;;1.10;99.90;;;;;;5106253;28;19970;-69
2023/01/24 00:04:11;;;;;;;;;;;1.10;99.90;;;;;;5106232;28;20221;-69
2023/01/24 00:06:38;;;;;;;;;;;1.10;99.90;;;;;;5105127;28;19951;-70
2023/01/24 00:09:05;;;;;;;;;;;1.10;99.90;;;;;;5106273;28;19952;-69
2023/01/24 00:11:31;;;;;;;;;;;1.20;99.90;;;;;;5125648;28;19926;-69
2023/01/24 00:13:59;;;;;;;;;;;1.10;99.90;;;;;;5126480;28;19991;-70
2023/01/24 00:16:26;;;;;;;;;;;1.10;99.90;;;;;;5125486;28;20131;-69
2023/01/24 00:18:52;;;;;;;;;;;1.10;99.90;;;;;;5125993;28;19958;-69
2023/01/24 00:21:20;;;;;;;;;;;1.20;99.90;;;;;;5107999;28;19983;-69
2023/01/24 00:23:47;;;;;;;;;;;1.20;99.90;;;;;;5105565;28;19979;-68
2023/01/24 00:26:15;;;;;;;;;;;1.20;99.90;;;;;;5105145;28;20115;-69
2023/01/24 00:28:42;;;;;;;;;;;1.20;99.90;;;;;;5105410;28;20216;-69
2023/01/24 00:31:09;;;;;;;;;;;1.30;99.90;;;;;;5105568;28;20119;-69
2023/01/24 00:33:36;;;;;;;;;;;1.20;99.90;;;;;;5124219;28;20111;-69
2023/01/24 00:36:03;;;;;;;;;;;1.20;99.90;;;;;;5125632;28;19991;-69
2023/01/24 00:38:30;;;;;;;;;;;1.20;99.90;;;;;;5125899;28;19919;-71
2023/01/24 00:40:57;;;;;;;;;;;1.20;99.90;;;;;;5111447;28;19978;-69
2023/01/24 00:43:23;;;;;;;;;;;1.30;99.90;;;;;;5105137;28;20230;-69
2023/01/24 00:45:50;;;;;;;;;;;1.20;99.90;;;;;;5105115;28;20119;-69
2023/01/24 00:48:18;;;;;;;;;;;1.30;99.90;;;;;;5105160;28;19920;-69
2023/01/24 00:50:45;;;;;;;;;;;1.30;99.90;;;;;;5105296;28;19927;-70
2023/01/24 00:53:11;;;;;;;;;;;1.30;99.90;;;;;;5105355;28;20114;-69
2023/01/24 00:55:41;;;;;;;;;;;1.20;99.90;;;;;;5105015;28;19920;-70
2023/01/24 00:58:08;;;;;;;;;;;1.20;99.90;;;;;;5104844;28;19942;-69
2023/01/24 01:00:36;;;;;;;;;;;1.20;99.90;;;;;;5104781;28;19987;-69
2023/01/24 01:03:03;;;;;;;;;;;1.20;99.90;;;;;;5105014;28;19955;-69
2023/01/24 01:05:31;;;;;;;;;;;1.20;99.90;;;;;;5104993;28;19958;-69
2023/01/24 01:07:58;;;;;;;;;;;1.20;99.90;;;;;;5104142;28;19991;-70
2023/01/24 01:10:25;;;;;;;;;;;1.20;99.90;;;;;;5104940;28;20003;-69
2023/01/24 01:12:51;;;;;;;;;;;1.20;99.90;;;;;;5104764;28;20226;-69
2023/01/24 01:15:18;;;;;;;;;;;1.20;99.90;;;;;;5115794;28;19958;-68
2023/01/24 01:17:44;;;;;;;;;;;1.20;99.90;;;;;;5124573;28;19951;-69
2023/01/24 01:20:12;;;;;;;;;;;1.20;99.90;;;;;;5124829;28;20267;-69
2023/01/24 01:22:40;;;;;;;;;;;1.20;99.90;;;;;;5124789;28;19920;-68
2023/01/24 01:25:06;;;;;;;;;;;1.30;99.90;;;;;;5124772;28;19920;-70
2023/01/24 01:27:33;;;;;;;;;;;1.20;99.90;;;;;;5124257;28;19994;-69
2023/01/24 01:30:00;;;;;;;;;;;1.20;99.90;;;;;;5125018;28;19992;-69
2023/01/24 01:32:26;;;;;;;;;;;1.20;99.90;;;;;;5124914;28;19951;-68
2023/01/24 01:34:53;;;;;;;;;;;1.20;99.90;;;;;;5124767;28;19951;-68
2023/01/24 01:37:19;;;;;;;;;;;1.20;99.90;;;;;;5123982;28;20267;-70
2023/01/24 01:39:47;;;;;;;;;;;1.20;99.90;;;;;;5114898;28;19958;-69
2023/01/24 01:42:15;;;;;;;;;;;1.10;99.90;;;;;;5104335;28;19986;-68
2023/01/24 01:44:43;;;;;;;;;;;1.10;99.90;;;;;;5104079;28;19965;-69
2023/01/24 01:47:17;;;;;;;;;;;1.20;99.90;;;;;;5103610;28;19983;-69
2023/01/24 01:49:45;;;;;;;;;;;1.20;99.90;;;;;;5103979;28;20002;-68
2023/01/24 01:52:12;;;;;;;;;;;1.20;99.90;;;;;;5104216;28;19991;-69
2023/01/24 01:54:40;;;;;;;;;;;1.20;99.90;;;;;;5103677;28;19990;-69
2023/01/24 01:57:11;;;;;;;;;;;1.20;99.90;;;;;;5103301;28;19920;-69
2023/01/24 01:59:39;;;;;;;;;;;1.20;99.90;;;;;;5104199;28;19920;-68
2023/01/24 02:02:06;;;;;;;;;;;1.20;99.90;;;;;;5109060;28;19934;-70
2023/01/24 02:04:34;;;;;;;;;;;1.20;99.90;;;;;;5124320;28;19919;-69
2023/01/24 02:07:02;;;;;;;;;;;1.20;99.90;;;;;;5123709;28;19920;-69
2023/01/24 02:09:32;;;;;;;;;;;1.20;99.90;;;;;;5124004;28;19920;-70
2023/01/24 02:12:01;;;;;;;;;;;1.20;99.90;;;;;;5103935;28;19920;-69
2023/01/24 02:17:16;;;;;;;;;;;1.30;99.90;;;;;;5123483;28;20230;-69
2023/01/24 02:19:47;;;;;;;;;;;1.30;99.90;;;;;;5124085;28;19987;-69
2023/01/24 02:22:16;;;;;;;;;;;1.30;99.90;;;;;;5124352;28;19983;-69
2023/01/24 02:24:46;;;;;;;;;;;1.30;99.90;;;;;;5123763;28;19924;-69
2023/01/24 02:27:14;;;;;;;;;;;1.30;99.90;;;;;;5123231;28;19942;-68
2023/01/24 02:29:40;;;;;;;;;;;1.30;99.90;;;;;;5123252;28;19920;-68
2023/01/24 02:32:07;;;;;;;;;;;1.30;99.90;;;;;;5104575;28;19920;-68
2023/01/24 02:34:34;;;;;;;;;;;1.30;99.90;;;;;;5103731;28;20107;-68
2023/01/24 02:37:03;;;;;;;;;;;1.20;99.90;;;;;;5103156;28;19920;-68
2023/01/24 02:39:30;;;;;;;;;;;1.20;99.90;;;;;;5103704;28;19924;-68
2023/01/24 02:41:59;;;;;;;;;;;1.30;99.90;;;;;;5103415;28;19927;-68
2023/01/24 02:44:30;;;;;;;;;;;1.30;99.90;;;;;;5103700;28;20115;-68
2023/01/24 02:46:56;;;;;;;;;;;1.30;99.90;;;;;;5102899;28;19920;-69
2023/01/24 02:49:23;;;;;;;;;;;1.30;99.90;;;;;;5103591;28;19927;-69
2023/01/24 02:54:34;;;;;;;;;;;1.40;99.90;;;;;;5103399;28;19922;-69
2023/01/24 02:59:46;;;;;;;;;;;1.30;99.90;;;;;;5103279;28;19991;-69
2023/01/24 03:02:13;;;;;;;;;;;1.30;99.90;;;;;;5103367;28;19927;-69
2023/01/24 03:04:39;;;;;;;;;;;1.30;99.90;;;;;;5103012;28;19951;-69
2023/01/24 03:07:06;;;;;;;;;;;1.30;99.90;;;;;;5105227;28;19963;-71
2023/01/24 03:09:38;;;;;;;;;;;1.30;99.90;;;;;;5107186;28;19919;-69
2023/01/24 03:36:45;;;;;;;;;;;1.40;99.90;;;;;;5105851;28;19987;-70
2023/01/24 03:41:58;;;;;;;;;;;1.40;99.90;;;;;;5089224;28;19916;-69
2023/01/24 03:44:25;;;;;;;;;;;1.30;99.90;;;;;;5106644;28;20115;-69
2023/01/24 03:46:53;;;;;;;;;;;1.30;99.90;;;;;;5105835;28;19995;-69
2023/01/24 03:54:44;;;;;;;;;;;1.30;99.90;;;;;;5084445;28;19924;-69
2023/01/24 03:57:11;;;;;;;;;;;1.30;99.90;;;;;;5105865;28;19983;-69
2023/01/24 03:59:37;;;;;;;;;;;1.30;99.90;;;;;;5106343;28;19986;-69
2023/01/24 04:02:05;;;;;;;;;;;1.30;99.90;;;;;;5106290;28;19920;-69
2023/01/24 04:05:12;;;;;;;;;;;1.30;99.90;;;;;;5106178;28;19920;-69
2023/01/24 04:07:19;;;;;;;;;;;1.30;99.90;;;;;;5105164;28;20155;-70
2023/01/24 04:09:46;;;;;;;;;;;1.30;99.90;;;;;;5105858;28;20002;-70
2023/01/24 04:12:12;;;;;;;;;;;1.40;99.90;;;;;;5106138;28;19939;-70
2023/01/24 04:14:39;;;;;;;;;;;1.40;99.90;;;;;;5106064;28;19951;-68
2023/01/24 04:17:07;;;;;;;;;;;1.40;99.90;;;;;;5104828;28;20416;-68
2023/01/24 04:19:33;;;;;;;;;;;1.40;99.90;;;;;;5105741;28;19920;-69
2023/01/24 04:22:00;;;;;;;;;;;1.30;99.90;;;;;;5126279;28;19983;-69
2023/01/24 04:24:26;;;;;;;;;;;1.30;99.90;;;;;;5126115;28;19926;-69
2023/01/24 04:26:53;;;;;;;;;;;1.30;99.90;;;;;;5125625;28;19920;-70
2023/01/24 04:29:20;;;;;;;;;;;1.30;99.90;;;;;;5125932;28;20015;-69
2023/01/24 04:31:47;;;;;;;;;;;1.30;99.90;;;;;;5126220;28;20029;-69
2023/01/24 04:34:14;;;;;;;;;;;1.30;99.90;;;;;;5126064;28;19920;-69
2023/01/24 04:36:41;;;;;;;;;;;1.30;99.90;;;;;;5125414;28;19920;-69
2023/01/24 04:39:08;;;;;;;;;;;1.30;99.90;;;;;;5125757;28;19919;-68
2023/01/24 04:41:34;;;;;;;;;;;1.30;99.90;;;;;;5125624;28;20283;-69
2023/01/24 04:44:01;;;;;;;;;;;1.30;99.90;;;;;;5125948;28;19986;-69
2023/01/24 04:46:28;;;;;;;;;;;1.30;99.90;;;;;;5109038;28;19991;-69
2023/01/24 04:48:54;;;;;;;;;;;1.20;99.90;;;;;;5105372;28;19952;-69
2023/01/24 04:51:22;;;;;;;;;;;1.30;99.90;;;;;;5105397;28;19988;-69
2023/01/24 04:53:49;;;;;;;;;;;1.30;99.90;;;;;;5105252;28;20003;-69
2023/01/24 04:56:16;;;;;;;;;;;1.20;99.90;;;;;;5104544;28;19926;-69
2023/01/24 04:58:42;;;;;;;;;;;1.30;99.90;;;;;;5105297;28;19920;-69
2023/01/24 05:01:09;;;;;;;;;;;1.30;99.90;;;;;;5105164;28;19920;-69
2023/01/24 05:03:35;;;;;;;;;;;1.30;99.90;;;;;;5105158;28;20074;-69
2023/01/24 05:06:02;;;;;;;;;;;1.30;99.90;;;;;;5104149;28;20243;-70
2023/01/24 05:08:30;;;;;;;;;;;1.30;99.90;;;;;;5104269;28;19927;-69
2023/01/24 05:11:00;;;;;;;;;;;1.30;99.90;;;;;;5105083;28;19955;-69
2023/01/24 05:13:27;;;;;;;;;;;1.30;99.90;;;;;;5104906;28;20236;-70
2023/01/24 05:15:54;;;;;;;;;;;1.30;99.90;;;;;;5104266;28;19991;-69
2023/01/24 05:18:21;;;;;;;;;;;1.30;99.90;;;;;;5105303;28;19979;-69
2023/01/24 05:20:47;;;;;;;;;;;1.30;99.90;;;;;;5105187;28;19920;-70
2023/01/24 05:23:14;;;;;;;;;;;1.30;99.90;;;;;;5104989;28;19980;-69
2023/01/24 05:25:42;;;;;;;;;;;1.30;99.90;;;;;;5104434;28;19920;-69
2023/01/24 05:28:08;;;;;;;;;;;1.20;99.90;;;;;;5103880;28;19979;-69
2023/01/24 05:30:35;;;;;;;;;;;1.20;99.90;;;;;;5104458;28;19987;-70
2023/01/24 05:33:03;;;;;;;;;;;1.30;99.90;;;;;;5104713;28;19956;-69
2023/01/24 05:35:30;;;;;;;;;;;1.20;99.90;;;;;;5104426;28;20098;-69
2023/01/24 05:37:56;;;;;;;;;;;1.30;99.90;;;;;;5103892;28;19983;-69
2023/01/24 05:40:23;;;;;;;;;;;1.20;99.90;;;;;;5104167;28;19942;-68
2023/01/24 05:42:51;;;;;;;;;;;1.20;99.90;;;;;;5104331;28;19983;-70
2023/01/24 05:45:17;;;;;;;;;;;1.30;99.90;;;;;;5104168;28;19955;-68
2023/01/24 05:47:44;;;;;;;;;;;1.30;99.90;;;;;;5103551;28;19920;-68
2023/01/24 05:50:11;;;;;;;;;;;1.30;99.90;;;;;;5104079;28;19983;-69
2023/01/24 05:52:37;;;;;;;;;;;1.30;99.90;;;;;;5104090;28;19927;-70
2023/01/24 05:55:04;;;;;;;;;;;1.30;99.90;;;;;;5104172;28;19955;-69
2023/01/24 05:57:31;;;;;;;;;;;1.30;99.90;;;;;;5103138;28;19983;-70
2023/01/24 05:59:59;;;;;;;;;;;1.30;99.90;;;;;;5103814;28;19920;-69
2023/01/24 06:02:27;;;;;;;;;;;1.30;99.90;;;;;;5103948;28;19920;-69
2023/01/24 06:04:54;;;;;;;;;;;1.30;99.90;;;;;;5103839;28;19979;-68
2023/01/24 06:07:21;;;;;;;;;;;1.30;99.90;;;;;;5103054;28;20269;-70
2023/01/24 06:09:47;;;;;;;;;;;1.30;99.90;;;;;;5103404;28;19920;-69
2023/01/24 06:12:14;;;;;;;;;;;1.20;99.90;;;;;;5103737;28;19991;-69
2023/01/24 06:14:40;;;;;;;;;;;1.20;99.90;;;;;;5103516;28;19926;-69
2023/01/24 06:17:08;;;;;;;;;;;1.30;99.90;;;;;;5103135;28;19951;-68
2023/01/24 06:19:35;;;;;;;;;;;1.30;99.90;;;;;;5103808;28;19991;-72
2023/01/24 06:22:04;;;;;;;;;;;1.30;99.90;;;;;;5103423;28;19920;-68
2023/01/24 06:24:31;;;;;;;;;;;1.30;99.90;;;;;;5103275;28;19948;-77
2023/01/24 06:26:58;;;;;;;;;;;1.30;99.90;;;;;;5101705;28;20208;-69
2023/01/24 06:29:25;;;;;;;;;;;1.30;99.90;;;;;;5103495;28;19920;-69
2023/01/24 06:31:58;;;;;;;;;;;1.30;99.90;;;;;;5103543;28;19920;-69
2023/01/24 06:34:35;;;;;;;;;;;1.30;99.90;;;;;;5103695;28;19999;-68
2023/01/24 06:37:06;;;;;;;;;;;1.30;99.90;;;;;;5102908;28;19920;-69
2023/01/24 06:39:33;;;;;;;;;;;1.40;99.90;;;;;;5103908;28;19928;-69
2023/01/24 06:42:00;;;;;;;;;;;1.30;99.90;;;;;;5107818;28;19988;-69
2023/01/24 06:44:27;;;;;;;;;;;1.30;99.90;;;;;;5107686;28;19992;-69
2023/01/24 06:46:54;;;;;;;;;;;1.30;99.90;;;;;;5107059;28;19959;-69
2023/01/24 06:49:20;;;;;;;;;;;1.30;99.90;;;;;;5107687;28;19990;-69
2023/01/24 06:51:51;;;;;;;;;;;1.30;99.90;;;;;;5107418;28;19990;-69
2023/01/24 06:54:18;;;;;;;;;;;1.30;99.90;;;;;;5107559;28;20009;-69
2023/01/24 06:56:44;;;;;;;;;;;1.30;99.90;;;;;;5106582;28;19977;-69
2023/01/24 06:59:11;;;;;;;;;;;1.30;99.90;;;;;;5107233;28;20250;-69
2023/01/24 07:01:37;;;;;;;;;;;1.30;99.90;;;;;;5107560;28;19919;-70
2023/01/24 07:04:04;;;;;;;;;;;1.30;99.90;;;;;;5107191;28;20263;-68
2023/01/24 07:06:31;;;;;;;;;;;1.30;99.90;;;;;;5106608;28;20119;-70
2023/01/24 07:08:59;;;;;;;;;;;1.30;99.90;;;;;;5105283;28;19926;-68
2023/01/24 07:11:25;;;;;;;;;;;1.20;99.90;;;;;;5107316;28;19920;-69
2023/01/24 07:13:52;;;;;;;;;;;1.30;99.90;;;;;;5107167;28;19987;-69
2023/01/24 07:16:19;;;;;;;;;;;1.20;99.90;;;;;;5106453;28;19991;-68
2023/01/24 07:18:46;;;;;;;;;;;1.30;99.90;;;;;;5104643;28;20112;-69
2023/01/24 07:21:13;;;;;;;;;;;1.30;99.90;;;;;;5107074;28;19920;-69
2023/01/24 07:23:43;;;;;;;;;;;1.30;99.90;;;;;;5104352;28;19927;-69
2023/01/24 07:26:12;;;;;;;;;;;1.30;99.90;;;;;;5106307;28;19991;-68
2023/01/24 07:28:39;;;;;;;;;;;1.30;99.90;;;;;;5106682;28;20097;-70
2023/01/24 07:31:05;;;;;;;;;;;1.30;99.90;;;;;;5106421;28;19983;-70
2023/01/24 07:33:32;;;;;;;;;;;1.30;99.90;;;;;;5103951;28;19951;-69
2023/01/24 07:35:59;;;;;;;;;;;1.30;99.90;;;;;;5106467;28;19949;-69
2023/01/24 07:38:25;;;;;;;;;;;1.30;99.90;;;;;;5106401;28;20274;-68
2023/01/24 07:40:52;;;;;;;;;;;1.30;99.90;;;;;;5106175;28;19927;-69
2023/01/24 07:43:20;;;;;;;;;;;1.30;99.90;;;;;;5106009;28;19986;-69
2023/01/24 07:45:47;;;;;;;;;;;1.30;99.90;;;;;;5105877;28;19920;-68
2023/01/24 07:48:13;;;;;;;;;;;1.30;99.90;;;;;;5105946;28;19920;-68
2023/01/24 07:50:40;;;;;;;;;;;1.40;99.90;;;;;;5106412;28;19926;-69
2023/01/24 07:53:07;;;;;;;;;;;1.40;99.90;;;;;;5105434;28;20212;-69
2023/01/24 07:55:33;;;;;;;;;;;1.40;99.90;;;;;;5105938;28;19927;-68
2023/01/24 07:58:00;;;;;;;;;;;1.40;99.90;;;;;;5105907;28;19987;-69
2023/01/24 08:00:29;;;;;;;;;;;1.30;99.90;;;;;;5106264;28;19920;-70
2023/01/24 08:02:55;;;;;;;;;;;1.30;99.90;;;;;;5106298;28;19926;-69
2023/01/24 08:05:22;;;;;;;;;;;1.40;99.90;;;;;;5106166;28;20299;-68
2023/01/24 08:07:48;;;;;;;;;;;1.40;99.90;;;;;;5105416;28;19920;-69
2023/01/24 08:10:15;;;;;;;;;;;1.40;99.90;;;;;;5105670;28;20116;-69
2023/01/24 08:12:42;;;;;;;;;;;1.40;99.90;;;;;;5105757;28;19924;-69
2023/01/24 08:15:09;;;;;;;;;;;1.40;99.90;;;;;;5106107;28;19927;-69
2023/01/24 08:17:38;;;;;;;;;;;1.40;99.90;;;;;;5105404;28;19966;-69
2023/01/24 08:20:05;;;;;;;;;;;1.50;99.90;;;;;;5106098;28;19920;-69
2023/01/24 08:22:31;;;;;;;;;;;1.50;99.90;;;;;;5105427;28;19920;-69
2023/01/24 08:24:58;;;;;;;;;;;1.50;99.90;;;;;;5105596;28;19920;-70
2023/01/24 08:27:25;;;;;;;;;;;1.50;99.90;;;;;;5105384;28;20000;-69
2023/01/24 08:29:51;;;;;;;;;;;1.50;99.90;;;;;;5105847;28;20164;-69
2023/01/24 08:32:18;;;;;;;;;;;1.50;99.90;;;;;;5105939;28;19920;-70
2023/01/24 08:34:46;;;;;;;;;;;1.50;99.90;;;;;;5105399;28;19991;-68
2023/01/24 08:37:13;;;;;;;;;;;1.50;99.90;;;;;;5105157;28;19983;-69
2023/01/24 08:39:39;;;;;;;;;;;1.50;99.90;;;;;;5105786;28;19959;-68
2023/01/24 08:42:06;;;;;;;;;;;1.50;99.90;;;;;;5105363;28;19955;-68
2023/01/24 08:44:33;;;;;;;;;;;1.50;99.90;;;;;;5105468;28;19920;-69
2023/01/24 08:46:59;;;;;;;;;;;1.60;99.90;;;;;;5104811;28;19979;-69
2023/01/24 08:49:26;;;;;;;;;;;1.60;99.90;;;;;;5105405;28;20111;-68
2023/01/24 08:51:58;;;;;;;;;;;1.60;99.90;;;;;;5105416;28;19983;-69
2023/01/24 08:54:25;;;;;;;;;;;1.60;99.90;;;;;;5105307;28;19926;-68
2023/01/24 08:56:51;;;;;;;;;;;1.70;99.90;;;;;;5104573;28;19926;-69
2023/01/24 08:59:18;;;;;;;;;;;1.70;99.90;;;;;;5105247;28;19983;-69
2023/01/24 09:01:45;;;;;;;;;;;1.70;99.90;;;;;;5104924;28;20066;-69
2023/01/24 09:04:12;;;;;;;;;;;1.70;99.90;;;;;;5103940;28;19962;-70
2023/01/24 09:06:38;;;;;;;;;;;1.70;99.90;;;;;;5103835;28;19987;-68
2023/01/24 09:09:06;;;;;;;;;;;1.70;99.90;;;;;;5104664;28;19983;-68
2023/01/24 09:11:33;;;;;;;;;;;1.70;99.90;;;;;;5104964;28;19920;-69
2023/01/24 09:14:02;;;;;;;;;;;1.70;99.90;;;;;;5104613;28;19994;-70
2023/01/24 09:16:28;;;;;;;;;;;1.70;99.90;;;;;;5103860;28;20148;-69
2023/01/24 09:18:55;;;;;;;;;;;1.70;99.90;;;;;;5104925;28;19979;-69
2023/01/24 09:21:22;;;;;;;;;;;1.80;99.90;;;;;;5104805;28;19963;-72
2023/01/24 09:23:49;;;;;;;;;;;1.70;99.90;;;;;;5104384;28;19920;-71
2023/01/24 09:26:17;;;;;;;;;;;1.70;99.90;;;;;;5103951;28;20172;-69
2023/01/24 09:28:43;;;;;;;;;;;1.70;99.90;;;;;;5104543;28;19927;-69
2023/01/24 09:31:11;;;;;;;;;;;1.80;99.90;;;;;;5104424;28;19986;-70
2023/01/24 09:33:37;;;;;;;;;;;1.80;99.90;;;;;;5104598;28;20139;-69
2023/01/24 09:36:04;;;;;;;;;;;1.80;99.90;;;;;;5104067;28;19983;-69
2023/01/24 09:38:32;;;;;;;;;;;1.80;99.90;;;;;;5104422;28;19942;-69
2023/01/24 09:41:04;;;;;;;;;;;1.80;99.90;;;;;;5104049;28;19988;-70
2023/01/24 09:43:54;;;;;;;;;;;1.80;99.90;;;;;;5104567;28;19983;-69
2023/01/24 09:46:27;;;;;;;;;;;1.80;99.90;;;;;;5097834;28;19979;-69
2023/01/24 09:48:58;;;;;;;;;;;1.80;99.90;;;;;;5104357;28;19955;-69
2023/01/24 09:51:27;;;;;;;;;;;1.80;99.90;;;;;;5104369;28;19920;-69
2023/01/24 09:53:54;;;;;;;;;;;1.90;99.90;;;;;;5104155;28;19926;-69
2023/01/24 09:56:30;;;;;;;;;;;1.90;99.90;;;;;;5103518;28;19926;-69
2023/01/24 09:59:09;;;;;;;;;;;1.90;99.90;;;;;;5104098;28;19952;-70
2023/01/24 10:01:40;;;;;;;;;;;1.90;99.90;;;;;;5104136;28;19927;-69
2023/01/24 10:04:13;;;;;;;;;;;1.90;99.90;;;;;;5104203;28;19924;-69
2023/01/24 10:06:40;;;;;;;;;;;1.90;99.90;;;;;;5103005;28;20211;-69
2023/01/24 10:09:09;;;;;;;;;;;1.90;99.90;;;;;;5103946;28;19920;-69
2023/01/24 10:11:43;;;;;;;;;;;1.90;99.90;;;;;;5103719;28;19991;-68
2023/01/24 10:14:20;;;;;;;;;;;1.90;99.90;;;;;;5103726;28;19920;-69
2023/01/24 10:16:57;;;;;;;;;;;1.90;99.90;;;;;;5103337;28;19955;-68
2023/01/24 10:19:31;;;;;;;;;;;2.00;99.90;;;;;;5103887;28;19952;-69
2023/01/24 10:22:04;;;;;;;;;;;2.00;99.90;;;;;;5103652;28;19920;-68
2023/01/24 10:24:32;;;;;;;;;;;2.00;99.90;;;;;;5103462;28;19920;-69
2023/01/24 10:27:01;;;;;;;;;;;2.00;99.90;;;;;;5110087;28;20282;-68
2023/01/24 10:29:30;;;;;;;;;;;2.10;99.90;;;;;;5120593;28;19920;-69
2023/01/24 10:32:00;;;;;;;;;;;2.10;99.90;;;;;;5103596;28;19928;-69
2023/01/24 10:34:29;;;;;;;;;;;2.10;99.90;;;;;;5103036;28;19927;-69
2023/01/24 10:36:58;;;;;;;;;;;2.10;99.90;;;;;;5102774;28;19955;-69
2023/01/24 10:39:27;;;;;;;;;;;2.10;99.90;;;;;;5114632;28;19920;-70
2023/01/24 10:41:54;;;;;;;;;;;2.10;99.90;;;;;;5123794;28;19926;-69
2023/01/24 10:44:24;;;;;;;;;;;2.10;99.90;;;;;;5103541;28;19988;-70
2023/01/24 10:47:05;;;;;;;;;;;2.20;99.90;;;;;;5102802;28;19920;-69
2023/01/24 10:49:36;;;;;;;;;;;2.20;99.90;;;;;;5103595;28;20179;-70
2023/01/24 10:52:10;;;;;;;;;;;2.20;99.90;;;;;;5103142;28;19920;-69
2023/01/24 10:54:47;;;;;;;;;;;2.20;99.90;;;;;;5103500;28;19983;-69
2023/01/24 10:57:26;;;;;;;;;;;2.20;99.90;;;;;;5102813;28;19920;-70
2023/01/24 10:59:53;;;;;;;;;;;2.10;99.90;;;;;;5103631;28;19983;-71
2023/01/24 11:02:21;;;;;;;;;;;2.20;99.90;;;;;;5103047;28;19926;-69
2023/01/24 11:04:52;;;;;;;;;;;2.20;99.90;;;;;;5102721;28;19942;-70
2023/01/24 11:07:27;;;;;;;;;;;2.20;99.90;;;;;;5102330;28;20208;-69
2023/01/24 11:09:54;;;;;;;;;;;2.20;99.90;;;;;;5103550;28;19920;-69
2023/01/24 11:12:21;;;;;;;;;;;2.20;99.90;;;;;;5103341;28;19991;-70
2023/01/24 11:14:49;;;;;;;;;;;2.20;99.90;;;;;;5103194;28;19919;-69
2023/01/24 11:17:29;;;;;;;;;;;2.30;99.90;;;;;;5102477;28;19920;-73
2023/01/24 11:20:01;;;;;;;;;;;2.30;99.90;;;;;;5110842;28;19979;-69
2023/01/24 11:22:34;;;;;;;;;;;2.30;99.90;;;;;;5123287;28;19985;-69
2023/01/24 11:25:02;;;;;;;;;;;2.30;99.90;;;;;;5122664;28;19927;-69
2023/01/24 11:27:28;;;;;;;;;;;2.30;99.90;;;;;;5122561;28;19920;-69
2023/01/24 11:30:05;;;;;;;;;;;2.30;99.90;;;;;;5127327;28;19982;-68
2023/01/24 11:32:36;;;;;;;;;;;2.30;99.90;;;;;;5127162;28;19926;-70
2023/01/24 11:35:09;;;;;;;;;;;2.20;99.90;;;;;;5126544;28;20131;-70
2023/01/24 11:37:59;;;;;;;;;;;2.20;99.90;;;;;;5126645;28;19919;-69
2023/01/24 11:40:30;;;;;;;;;;;2.30;99.90;;;;;;5127117;28;20200;-70
2023/01/24 11:43:02;;;;;;;;;;;2.30;99.90;;;;;;5121925;28;19957;-69
2023/01/24 11:45:39;;;;;;;;;;;2.30;99.90;;;;;;5106428;28;20118;-69
2023/01/24 11:48:08;;;;;;;;;;;2.30;99.90;;;;;;5116684;28;19919;-69
2023/01/24 11:50:40;;;;;;;;;;;2.30;99.90;;;;;;5126837;28;19920;-69
2023/01/24 11:53:21;;;;;;;;;;;2.40;99.90;;;;;;5126495;28;19920;-69
2023/01/24 11:55:53;;;;;;;;;;;2.40;99.90;;;;;;5123718;28;19919;-70
2023/01/24 11:58:27;;;;;;;;;;;2.40;99.90;;;;;;5126598;28;19920;-69
2023/01/24 12:00:56;;;;;;;;;;;2.40;99.90;;;;;;5113839;28;19958;-69
2023/01/24 12:03:53;;;;;;;;;;;2.40;99.90;;;;;;5107334;28;19982;-70
2023/01/24 12:06:26;;;;;;;;;;;2.40;99.90;;;;;;5071128;28;19929;-69
2023/01/24 12:08:58;;;;;;;;;;;2.40;99.90;;;;;;5097729;28;19926;-69
2023/01/24 12:11:28;;;;;;;;;;;2.40;99.90;;;;;;5105844;28;20230;-68
2023/01/24 12:14:01;;;;;;;;;;;2.50;99.90;;;;;;5105688;28;19923;-69
2023/01/24 12:16:33;;;;;;;;;;;2.40;99.90;;;;;;5104888;28;20226;-69
2023/01/24 12:19:12;;;;;;;;;;;2.30;99.90;;;;;;5119164;28;20164;-69
2023/01/24 12:21:40;;;;;;;;;;;2.40;99.90;;;;;;5103489;28;20123;-71
2023/01/24 12:24:10;;;;;;;;;;;2.40;99.90;;;;;;5104208;28;20266;-67
2023/01/24 12:26:40;;;;;;;;;;;2.40;99.90;;;;;;5104387;28;19920;-66
2023/01/24 12:29:12;;;;;;;;;;;2.40;99.90;;;;;;5120743;28;19926;-67
2023/01/24 12:31:42;;;;;;;;;;;2.40;99.90;;;;;;5126047;28;19920;-67
2023/01/24 12:34:14;;;;;;;;;;;2.50;99.90;;;;;;5125963;28;19919;-67
2023/01/24 12:36:44;;;;;;;;;;;2.50;99.90;;;;;;5124968;28;19987;-68
2023/01/24 12:39:12;;;;;;;;;;;2.40;99.90;;;;;;5125789;28;19920;-67
2023/01/24 12:41:39;;;;;;;;;;;2.40;99.90;;;;;;5125824;28;19987;-67
2023/01/24 12:44:16;;;;;;;;;;;2.40;99.90;;;;;;5125533;28;19920;-68
2023/01/24 12:46:44;;;;;;;;;;;2.40;99.90;;;;;;5125013;28;19919;-67
2023/01/24 12:49:28;;;;;;;;;;;2.40;99.90;;;;;;5125667;28;19927;-68
2023/01/24 12:51:59;;;;;;;;;;;2.40;99.90;;;;;;5124503;28;19920;-67
2023/01/24 12:54:29;;;;;;;;;;;2.30;99.90;;;;;;5116092;28;20107;-67
2023/01/24 12:56:59;;;;;;;;;;;2.30;99.90;;;;;;5112370;28;19919;-67
2023/01/24 12:59:28;;;;;;;;;;;2.30;99.90;;;;;;5125221;28;20208;-67
2023/01/24 13:02:13;;;;;;;;;;;2.30;99.90;;;;;;5111153;28;19966;-67
2023/01/24 13:04:43;;;;;;;;;;;2.30;99.90;;;;;;5104826;28;19926;-67
2023/01/24 13:07:16;;;;;;;;;;;2.20;99.90;;;;;;5104325;28;19928;-67
2023/01/24 13:09:45;;;;;;;;;;;2.30;99.90;;;;;;5112516;28;20001;-67
2023/01/24 13:12:14;;;;;;;;;;;2.30;99.90;;;;;;5124906;28;20280;-67
2023/01/24 13:14:42;;;;;;;;;;;2.30;99.90;;;;;;5125081;28;20107;-67
2023/01/24 13:17:21;;;;;;;;;;;2.30;99.90;;;;;;5124479;28;19920;-67
2023/01/24 13:20:01;;;;;;;;;;;2.30;99.90;;;;;;5124746;28;20263;-68
2023/01/24 13:22:37;;;;;;;;;;;2.30;99.90;;;;;;5125123;28;19919;-67
2023/01/24 13:25:11;;;;;;;;;;;2.30;99.90;;;;;;5124596;28;20267;-66
2023/01/24 13:27:42;;;;;;;;;;;2.30;99.90;;;;;;5109315;28;19926;-67
2023/01/24 13:30:23;;;;;;;;;;;2.30;99.90;;;;;;5104493;28;20171;-67
2023/01/24 13:32:50;;;;;;;;;;;2.30;99.90;;;;;;5104075;28;19920;-66
2023/01/24 13:35:18;;;;;;;;;;;2.30;99.90;;;;;;5103949;28;19920;-67
2023/01/24 13:37:51;;;;;;;;;;;2.30;99.90;;;;;;5103824;28;19991;-66
2023/01/24 13:40:30;;;;;;;;;;;2.30;99.90;;;;;;5104457;28;19920;-67
2023/01/24 13:42:57;;;;;;;;;;;2.20;99.90;;;;;;5104001;28;19942;-67
2023/01/24 13:45:42;;;;;;;;;;;2.30;99.90;;;;;;5101860;28;19924;-67
2023/01/24 13:48:24;;;;;;;;;;;2.30;99.90;;;;;;5103608;28;19983;-70
2023/01/24 13:51:21;;;;;;;;;;;2.30;99.90;;;;;;5103260;28;19920;-69
2023/01/24 13:53:59;;;;;;;;;;;2.30;99.90;;;;;;5104118;28;19951;-69
2023/01/24 13:56:26;;;;;;;;;;;2.20;99.90;;;;;;5100713;28;19963;-69
2023/01/24 13:58:54;;;;;;;;;;;2.20;99.90;;;;;;5116517;28;19920;-69
2023/01/24 14:01:21;;;;;;;;;;;2.20;99.90;;;;;;5107949;28;20204;-69
2023/01/24 14:03:55;;;;;;;;;;;2.30;99.90;;;;;;5123885;28;19979;-69
2023/01/24 14:06:23;;;;;;;;;;;2.30;99.90;;;;;;5123747;28;19982;-70
2023/01/24 14:08:58;;;;;;;;;;;2.30;99.90;;;;;;5123554;28;20260;-69
2023/01/24 14:11:33;;;;;;;;;;;2.30;99.90;;;;;;5124283;28;19986;-69
2023/01/24 14:14:02;;;;;;;;;;;2.20;99.90;;;;;;5123888;28;19955;-70
2023/01/24 14:16:47;;;;;;;;;;;2.20;99.90;;;;;;5122599;28;19927;-69
2023/01/24 14:19:16;;;;;;;;;;;2.20;99.90;;;;;;5116505;28;20049;-67
2023/01/24 14:21:48;;;;;;;;;;;2.20;99.90;;;;;;5124151;28;19958;-67
2023/01/24 14:24:19;;;;;;;;;;;2.10;99.90;;;;;;5123848;28;19920;-67
2023/01/24 14:26:50;;;;;;;;;;;2.20;99.90;;;;;;5104851;28;20143;-67
2023/01/24 14:29:17;;;;;;;;;;;2.10;99.90;;;;;;5103404;28;19920;-67
2023/01/24 14:31:46;;;;;;;;;;;2.20;99.90;;;;;;5103574;28;19991;-67
2023/01/24 14:34:16;;;;;;;;;;;2.20;99.90;;;;;;5103584;28;19981;-68
2023/01/24 14:36:43;;;;;;;;;;;2.20;99.90;;;;;;5120627;28;19990;-66
2023/01/24 14:39:19;;;;;;;;;;;2.20;99.90;;;;;;5124006;28;19926;-67
2023/01/24 14:41:46;;;;;;;;;;;2.20;99.90;;;;;;5123870;28;20097;-68
2023/01/24 14:44:18;;;;;;;;;;;2.20;99.90;;;;;;5123522;28;19920;-67
2023/01/24 14:46:52;;;;;;;;;;;2.20;99.90;;;;;;5123062;28;19919;-67
2023/01/24 14:49:25;;;;;;;;;;;2.20;99.90;;;;;;5123654;28;19951;-66
2023/01/24 14:51:51;;;;;;;;;;;2.20;99.90;;;;;;5123518;28;19926;-67
2023/01/24 14:54:20;;;;;;;;;;;2.30;99.90;;;;;;5123782;28;19983;-67
2023/01/24 14:56:47;;;;;;;;;;;2.30;99.90;;;;;;5123040;28;19924;-67
2023/01/24 14:59:14;;;;;;;;;;;2.30;99.90;;;;;;5123814;28;20175;-68
2023/01/24 15:01:42;;;;;;;;;;;2.30;99.90;;;;;;5118904;28;19919;-66
2023/01/24 15:04:20;;;;;;;;;;;2.20;99.90;;;;;;5127713;28;19920;-67
2023/01/24 15:06:47;;;;;;;;;;;2.20;99.90;;;;;;5127034;28;20183;-66
2023/01/24 15:09:14;;;;;;;;;;;2.20;99.90;;;;;;5127739;28;19926;-66
2023/01/24 15:11:42;;;;;;;;;;;2.30;99.90;;;;;;5127536;28;19957;-67
2023/01/24 15:14:16;;;;;;;;;;;2.20;99.90;;;;;;5127321;28;20215;-67
2023/01/24 15:16:48;;;;;;;;;;;2.20;99.90;;;;;;5126605;28;19962;-68
2023/01/24 15:19:19;;;;;;;;;;;2.20;99.90;;;;;;5127615;28;19982;-68
2023/01/24 15:21:47;;;;;;;;;;;2.10;99.90;;;;;;5127199;28;19919;-67
2023/01/24 15:24:19;;;;;;;;;;;2.10;99.90;;;;;;5125566;28;19927;-67